createdAt,value
2022-11-16T00:02:01.593Z,4.30
2022-11-16T00:04:29.879Z,4.30
2022-11-16T00:07:02.838Z,4.30
2022-11-16T00:09:32.121Z,4.40
2022-11-16T00:12:01.907Z,4.40
2022-11-16T00:14:32.522Z,4.40
2022-11-16T00:17:01.917Z,4.40
2022-11-16T00:19:30.547Z,4.40
2022-11-16T00:22:00.215Z,4.40
2022-11-16T00:24:28.496Z,4.40
2022-11-16T00:26:57.132Z,4.50
2022-11-16T00:29:27.132Z,4.50
2022-11-16T00:31:55.928Z,4.50
2022-11-16T00:34:24.945Z,4.50
2022-11-16T00:36:53.203Z,4.50
2022-11-16T00:39:22.925Z,4.50
2022-11-16T00:41:51.540Z,4.50
2022-11-16T00:44:19.918Z,4.50
2022-11-16T00:46:48.172Z,4.50
2022-11-16T00:49:16.774Z,4.50
2022-11-16T00:51:45.038Z,4.50
2022-11-16T00:54:13.369Z,4.60
2022-11-16T00:56:42.990Z,4.50
2022-11-16T00:59:11.213Z,4.50
2022-11-16T01:01:39.589Z,4.50
2022-11-16T01:04:07.938Z,4.50
2022-11-16T01:06:36.199Z,4.40
2022-11-16T01:09:04.641Z,4.40
2022-11-16T01:11:53.246Z,4.40
2022-11-16T01:14:23.005Z,4.30
2022-11-16T01:16:51.910Z,4.30
2022-11-16T01:19:20.137Z,4.30
2022-11-16T01:21:48.663Z,4.20
2022-11-16T01:24:16.992Z,4.20
2022-11-16T01:26:45.424Z,4.20
2022-11-16T01:29:13.735Z,4.10
2022-11-16T01:31:43.780Z,4.00
2022-11-16T01:34:12.058Z,4.00
2022-11-16T01:36:40.348Z,4.00
2022-11-16T01:39:08.783Z,4.00
2022-11-16T01:41:37.512Z,3.90
2022-11-16T01:44:07.674Z,3.90
2022-11-16T01:46:35.968Z,4.00
2022-11-16T01:49:09.954Z,3.90
2022-11-16T01:51:39.139Z,3.90
2022-11-16T01:54:10.994Z,4.00
2022-11-16T01:56:40.735Z,4.00
2022-11-16T01:59:09.720Z,4.00
2022-11-16T02:02:03.574Z,3.90
2022-11-16T02:04:33.364Z,3.80
2022-11-16T02:07:09.351Z,3.70
2022-11-16T02:09:55.436Z,3.60
2022-11-16T02:12:50.924Z,3.50
2022-11-16T02:15:27.444Z,3.50
2022-11-16T02:18:05.448Z,3.40
2022-11-16T02:20:48.221Z,3.40
2022-11-16T02:24:04.418Z,3.40
2022-11-16T02:27:26.351Z,3.40
2022-11-16T02:29:57.428Z,3.40
2022-11-16T02:32:31.029Z,3.30
2022-11-16T02:35:07.417Z,3.30
2022-11-16T02:37:41.856Z,3.20
2022-11-16T02:40:13.372Z,3.20
2022-11-16T02:42:46.007Z,3.10
2022-11-16T02:45:19.585Z,3.10
2022-11-16T02:47:49.752Z,3.00
2022-11-16T02:50:21.373Z,3.00
2022-11-16T02:52:49.608Z,2.90
2022-11-16T02:55:18.167Z,2.90
2022-11-16T02:57:52.543Z,2.90
2022-11-16T03:00:25.140Z,2.80
2022-11-16T03:03:08.408Z,2.80
2022-11-16T03:05:40.441Z,2.80
2022-11-16T03:08:17.262Z,2.70
2022-11-16T03:11:08.334Z,2.70
2022-11-16T03:13:38.333Z,2.80
2022-11-16T03:16:13.708Z,2.80
2022-11-16T03:18:42.789Z,2.80
2022-11-16T03:21:17.643Z,2.70
2022-11-16T03:23:47.251Z,2.70
2022-11-16T03:26:19.711Z,2.70
2022-11-16T03:28:53.497Z,2.70
2022-11-16T03:31:29.469Z,2.70
2022-11-16T03:34:26.631Z,2.80
2022-11-16T03:36:57.034Z,2.80
2022-11-16T03:39:30.818Z,2.80
2022-11-16T03:42:01.069Z,2.80
2022-11-16T03:44:30.175Z,2.80
2022-11-16T03:46:59.982Z,2.80
2022-11-16T03:49:32.076Z,2.80
2022-11-16T03:52:00.539Z,2.80
2022-11-16T03:54:28.801Z,2.80
2022-11-16T03:56:57.113Z,2.90
2022-11-16T03:59:25.503Z,2.90
2022-11-16T04:01:53.976Z,2.90
2022-11-16T04:04:41.004Z,2.90
2022-11-16T04:07:38.743Z,2.90
2022-11-16T04:10:25.102Z,3.00
2022-11-16T04:13:11.425Z,2.90
2022-11-16T04:19:00.326Z,2.90
2022-11-16T04:21:51.609Z,2.90
2022-11-16T04:24:23.259Z,2.90
2022-11-16T04:27:29.579Z,2.90
2022-11-16T04:29:59.871Z,2.90
2022-11-16T04:32:45.570Z,3.00
2022-11-16T04:35:31.305Z,3.00
2022-11-16T04:38:01.324Z,3.00
2022-11-16T04:40:30.232Z,3.00
2022-11-16T04:42:58.753Z,3.10
2022-11-16T04:45:56.734Z,3.10
2022-11-16T04:48:24.994Z,3.10
2022-11-16T04:50:53.295Z,3.10
2022-11-16T04:53:26.977Z,3.10
2022-11-16T04:56:00.483Z,3.10
2022-11-16T04:58:29.187Z,3.10
2022-11-16T05:00:57.486Z,3.00
2022-11-16T05:03:25.721Z,2.90
2022-11-16T05:05:53.932Z,2.90
2022-11-16T05:08:23.571Z,2.80
2022-11-16T05:10:52.430Z,2.80
2022-11-16T05:13:20.680Z,2.90
2022-11-16T05:15:48.931Z,2.80
2022-11-16T05:18:17.340Z,2.80
2022-11-16T05:21:02.404Z,2.70
2022-11-16T05:24:01.088Z,2.70
2022-11-16T05:26:29.354Z,2.80
2022-11-16T05:28:57.589Z,2.80
2022-11-16T05:31:25.774Z,2.90
2022-11-16T05:33:54.070Z,2.90
2022-11-16T05:36:27.340Z,3.00
2022-11-16T05:38:56.891Z,3.00
2022-11-16T05:41:25.100Z,3.00
2022-11-16T05:43:53.305Z,3.00
2022-11-16T05:46:21.624Z,3.00
2022-11-16T05:48:50.182Z,3.10
2022-11-16T05:51:18.823Z,3.10
2022-11-16T05:53:49.317Z,3.10
2022-11-16T05:56:19.021Z,3.20
2022-11-16T05:58:47.908Z,3.20
2022-11-16T06:01:16.132Z,3.30
2022-11-16T06:03:44.464Z,3.30
2022-11-16T06:06:12.640Z,3.30
2022-11-16T06:08:41.035Z,3.30
2022-11-16T06:11:11.048Z,3.30
2022-11-16T06:13:50.975Z,3.40
2022-11-16T06:16:19.314Z,3.40
2022-11-16T06:18:48.844Z,3.40
2022-11-16T06:21:18.744Z,3.50
2022-11-16T06:23:47.490Z,3.50
2022-11-16T06:26:15.814Z,3.50
2022-11-16T06:28:44.919Z,3.60
2022-11-16T06:31:14.518Z,3.60
2022-11-16T06:33:42.843Z,3.70
2022-11-16T06:36:11.115Z,3.80
2022-11-16T06:38:39.439Z,3.90
2022-11-16T06:41:07.746Z,4.00
2022-11-16T06:43:35.918Z,4.00
2022-11-16T06:46:04.224Z,4.00
2022-11-16T06:48:34.817Z,4.10
2022-11-16T06:51:03.347Z,4.10
2022-11-16T06:56:23.405Z,4.20
2022-11-16T06:58:53.471Z,4.10
2022-11-16T07:01:46.730Z,4.10
2022-11-16T07:04:16.350Z,4.20
2022-11-16T07:06:44.632Z,4.40
2022-11-16T07:09:15.229Z,4.50
2022-11-16T07:11:43.435Z,4.60
2022-11-16T07:14:12.654Z,4.70
2022-11-16T07:16:41.038Z,4.80
2022-11-16T07:19:10.167Z,4.80
2022-11-16T07:21:40.208Z,4.80
2022-11-16T07:24:08.594Z,4.90
2022-11-16T07:26:36.938Z,4.80
2022-11-16T07:29:05.349Z,4.90
2022-11-16T07:31:33.634Z,4.90
2022-11-16T07:34:20.293Z,4.90
2022-11-16T07:36:49.906Z,4.90
2022-11-16T07:39:18.173Z,5.00
2022-11-16T07:41:47.081Z,5.10
2022-11-16T07:44:15.287Z,5.20
2022-11-16T07:46:46.996Z,5.40
2022-11-16T07:49:16.761Z,5.40
2022-11-16T07:51:45.755Z,5.50
2022-11-16T07:54:16.038Z,5.50
2022-11-16T07:56:44.294Z,5.60
2022-11-16T07:59:12.638Z,5.60
2022-11-16T08:01:40.920Z,5.70
2022-11-16T08:04:09.236Z,5.60
2022-11-16T08:06:37.452Z,5.70
2022-11-16T08:09:05.747Z,5.80
2022-11-16T08:11:35.287Z,5.80
2022-11-16T08:14:03.460Z,5.80
2022-11-16T08:16:33.365Z,5.90
2022-11-16T08:19:02.417Z,6.10
2022-11-16T08:21:30.695Z,6.10
2022-11-16T08:23:59.256Z,6.30
2022-11-16T08:26:28.275Z,6.30
2022-11-16T08:29:23.297Z,6.30
2022-11-16T08:31:51.729Z,6.40
2022-11-16T08:34:20.064Z,6.30
2022-11-16T08:36:48.389Z,6.30
2022-11-16T08:39:21.676Z,6.30
2022-11-16T08:42:14.974Z,6.40
2022-11-16T08:44:44.644Z,6.50
2022-11-16T08:47:12.836Z,6.50
2022-11-16T08:49:44.009Z,6.60
2022-11-16T08:52:16.482Z,6.60
2022-11-16T08:54:44.669Z,6.60
2022-11-16T08:57:13.055Z,6.60
2022-11-16T08:59:41.290Z,6.70
2022-11-16T09:02:11.193Z,6.70
2022-11-16T09:04:39.473Z,6.80
2022-11-16T09:07:33.065Z,6.90
2022-11-16T09:10:01.568Z,7.00
2022-11-16T09:12:29.790Z,7.20
2022-11-16T09:14:57.981Z,7.30
2022-11-16T09:17:27.544Z,7.40
2022-11-16T09:19:55.761Z,7.60
2022-11-16T09:22:24.050Z,7.90
2022-11-16T09:24:52.273Z,8.20
2022-11-16T09:27:20.464Z,8.50
2022-11-16T09:29:48.658Z,9.10
2022-11-16T09:32:16.858Z,9.70
2022-11-16T09:34:46.488Z,10.20
2022-11-16T09:37:15.347Z,10.60
2022-11-16T09:39:43.581Z,11.00
2022-11-16T09:42:25.484Z,11.20
2022-11-16T09:45:04.605Z,11.40
2022-11-16T09:47:48.994Z,11.70
2022-11-16T09:50:32.703Z,12.00
2022-11-16T09:53:10.951Z,12.30
2022-11-16T09:55:46.678Z,12.50
2022-11-16T09:58:18.985Z,12.80
2022-11-16T10:00:53.776Z,12.90
2022-11-16T10:03:25.538Z,12.90
2022-11-16T10:06:02.817Z,12.90
2022-11-16T10:08:43.990Z,13.00
2022-11-16T10:11:48.074Z,13.20
2022-11-16T10:14:50.171Z,13.30
2022-11-16T10:20:48.261Z,13.40
2022-11-16T10:23:27.674Z,13.50
2022-11-16T10:26:04.656Z,13.60
2022-11-16T10:28:58.646Z,13.50
2022-11-16T10:31:34.359Z,13.50
2022-11-16T10:34:23.925Z,13.40
2022-11-16T10:36:55.645Z,13.40
2022-11-16T10:39:27.522Z,13.30
2022-11-16T10:42:03.214Z,13.30
2022-11-16T10:44:37.974Z,13.30
2022-11-16T10:47:18.022Z,13.40
2022-11-16T10:49:54.808Z,13.30
2022-11-16T10:52:23.648Z,13.10
2022-11-16T10:54:59.147Z,12.80
2022-11-16T10:57:47.358Z,12.60
2022-11-16T11:00:37.969Z,12.30
2022-11-16T11:03:06.712Z,12.10
2022-11-16T11:06:00.492Z,12.10
2022-11-16T11:08:31.549Z,12.10
2022-11-16T11:11:23.255Z,12.00
2022-11-16T11:14:11.374Z,12.10
2022-11-16T11:16:41.477Z,11.90
2022-11-16T11:19:20.474Z,11.80
2022-11-16T11:21:49.322Z,11.70
2022-11-16T11:27:08.769Z,11.50
2022-11-16T11:29:38.768Z,11.40
2022-11-16T11:32:22.411Z,11.40
2022-11-16T11:34:54.872Z,11.40
2022-11-16T11:37:28.793Z,11.40
2022-11-16T11:40:20.394Z,11.40
2022-11-16T11:43:01.701Z,11.30
2022-11-16T11:45:36.749Z,11.30
2022-11-16T11:48:16.911Z,11.30
2022-11-16T11:50:50.862Z,11.40
2022-11-16T11:53:40.685Z,11.50
2022-11-16T11:56:12.916Z,11.50
2022-11-16T11:58:43.464Z,11.50
2022-11-16T12:01:53.771Z,11.60
2022-11-16T12:04:59.244Z,11.60
2022-11-16T12:07:39.830Z,11.60
2022-11-16T12:10:17.598Z,11.50
2022-11-16T12:13:01.155Z,11.40
2022-11-16T12:15:51.504Z,11.50
2022-11-16T12:18:43.366Z,11.50
2022-11-16T12:21:14.398Z,11.50
2022-11-16T12:24:04.447Z,11.50
2022-11-16T12:26:44.947Z,11.60
2022-11-16T12:29:27.813Z,11.60
2022-11-16T12:32:22.994Z,11.60
2022-11-16T12:35:03.216Z,11.60
2022-11-16T12:37:36.417Z,11.50
2022-11-16T12:40:33.012Z,11.50
2022-11-16T12:43:10.673Z,11.50
2022-11-16T12:46:14.140Z,11.60
2022-11-16T12:49:11.559Z,11.60
2022-11-16T12:51:55.591Z,11.70
2022-11-16T12:55:25.458Z,11.70
2022-11-16T12:58:06.044Z,11.80
2022-11-16T13:00:47.965Z,11.80
2022-11-16T13:03:21.352Z,11.80
2022-11-16T13:05:59.145Z,11.80
2022-11-16T13:08:51.093Z,11.80
2022-11-16T13:11:23.921Z,11.80
2022-11-16T13:13:57.014Z,11.80
2022-11-16T13:16:26.313Z,11.80
2022-11-16T13:18:56.253Z,11.70
2022-11-16T13:21:44.767Z,11.70
2022-11-16T13:24:28.286Z,11.70
2022-11-16T13:27:05.487Z,11.70
2022-11-16T13:29:39.151Z,11.70
2022-11-16T13:32:12.198Z,11.70
2022-11-16T13:34:41.308Z,11.70
2022-11-16T13:37:43.022Z,11.80
2022-11-16T13:40:29.157Z,11.80
2022-11-16T13:43:16.295Z,11.80
2022-11-16T13:45:52.728Z,11.80
2022-11-16T13:48:24.026Z,11.80
2022-11-16T13:50:55.196Z,11.80
2022-11-16T13:54:25.308Z,11.70
2022-11-16T13:56:28.575Z,11.70
2022-11-16T13:58:58.338Z,11.70
2022-11-16T14:01:27.017Z,11.60
2022-11-16T14:04:38.729Z,11.50
2022-11-16T14:07:28.353Z,11.50
2022-11-16T14:09:56.736Z,11.50
2022-11-16T14:12:54.410Z,11.50
2022-11-16T14:15:26.568Z,11.40
2022-11-16T14:17:58.164Z,11.50
2022-11-16T14:20:52.511Z,11.40
2022-11-16T14:23:40.559Z,11.40
2022-11-16T14:26:17.182Z,11.40
2022-11-16T14:29:14.267Z,11.30
2022-11-16T14:31:53.606Z,11.20
2022-11-16T14:34:49.196Z,11.10
2022-11-16T14:37:31.949Z,11.10
2022-11-16T14:40:05.614Z,11.00
2022-11-16T14:42:54.393Z,11.00
2022-11-16T14:45:27.502Z,11.00
2022-11-16T14:48:02.228Z,10.90
2022-11-16T14:50:35.418Z,10.90
2022-11-16T14:53:09.152Z,10.90
2022-11-16T14:55:43.685Z,10.80
2022-11-16T14:58:18.808Z,10.80
2022-11-16T15:00:54.426Z,10.80
2022-11-16T15:03:26.688Z,10.70
2022-11-16T15:05:58.491Z,10.70
2022-11-16T15:08:32.732Z,10.70
2022-11-16T15:11:01.644Z,10.70
2022-11-16T15:13:29.986Z,10.60
2022-11-16T15:16:15.582Z,10.70
2022-11-16T15:19:02.617Z,10.70
2022-11-16T15:21:30.870Z,10.60
2022-11-16T15:24:28.921Z,10.60
2022-11-16T15:26:47.301Z,10.60
2022-11-16T15:29:18.612Z,10.60
2022-11-16T15:31:47.581Z,10.60
2022-11-16T15:34:18.555Z,10.50
2022-11-16T15:36:47.538Z,10.50
2022-11-16T15:39:19.800Z,10.50
2022-11-16T15:41:48.515Z,10.50
2022-11-16T15:44:18.786Z,10.40
2022-11-16T15:46:49.084Z,10.40
2022-11-16T15:49:29.286Z,10.40
2022-11-16T15:52:01.585Z,10.30
2022-11-16T15:54:31.135Z,10.30
2022-11-16T15:57:07.888Z,10.30
2022-11-16T15:59:38.232Z,10.30
2022-11-16T16:02:06.708Z,10.20
2022-11-16T16:04:37.048Z,10.20
2022-11-16T16:07:05.308Z,10.20
2022-11-16T16:09:35.549Z,10.20
2022-11-16T16:12:18.765Z,10.10
2022-11-16T16:14:48.467Z,10.10
2022-11-16T16:17:24.389Z,10.10
2022-11-16T16:19:57.805Z,10.10
2022-11-16T16:22:29.607Z,10.10
2022-11-16T16:24:58.015Z,10.10
2022-11-16T16:27:28.043Z,10.00
2022-11-16T16:29:57.718Z,10.00
2022-11-16T16:32:27.622Z,10.00
2022-11-16T16:34:58.691Z,10.00
2022-11-16T16:37:28.383Z,10.00
2022-11-16T16:39:56.771Z,10.00
2022-11-16T16:42:25.288Z,10.00
2022-11-16T16:44:53.684Z,10.00
2022-11-16T16:47:21.944Z,9.90
2022-11-16T16:49:50.626Z,9.90
2022-11-16T16:52:20.482Z,9.90
2022-11-16T16:54:48.771Z,9.90
2022-11-16T16:57:17.998Z,9.90
2022-11-16T16:59:48.538Z,9.90
2022-11-16T17:02:17.726Z,9.90
2022-11-16T17:04:46.945Z,9.80
2022-11-16T17:07:15.527Z,9.90
2022-11-16T17:09:45.160Z,9.80
2022-11-16T17:12:13.610Z,9.90
2022-11-16T17:14:42.046Z,9.80
2022-11-16T17:17:10.245Z,9.80
2022-11-16T17:19:38.472Z,9.80
2022-11-16T17:22:06.665Z,9.80
2022-11-16T17:24:36.303Z,9.80
2022-11-16T17:27:06.304Z,9.80
2022-11-16T17:29:34.584Z,9.80
2022-11-16T17:32:02.879Z,9.80
2022-11-16T17:34:56.156Z,9.80
2022-11-16T17:37:24.525Z,9.80
2022-11-16T17:39:52.808Z,9.80
2022-11-16T17:42:22.401Z,9.70
2022-11-16T17:44:50.775Z,9.70
2022-11-16T17:47:19.023Z,9.70
2022-11-16T17:49:47.284Z,9.70
2022-11-16T17:52:40.344Z,9.70
2022-11-16T17:55:09.689Z,9.60
2022-11-16T17:57:39.230Z,9.50
2022-11-16T18:00:09.078Z,9.50
2022-11-16T18:02:37.257Z,9.50
2022-11-16T18:05:05.845Z,9.40
2022-11-16T18:07:34.461Z,9.50
2022-11-16T18:10:02.796Z,9.40
2022-11-16T18:12:31.010Z,9.40
2022-11-16T18:15:26.928Z,9.40
2022-11-16T18:17:49.023Z,9.30
2022-11-16T18:20:17.401Z,9.30
2022-11-16T18:22:45.849Z,9.30
2022-11-16T18:25:14.035Z,9.30
2022-11-16T18:27:42.357Z,9.30
2022-11-16T18:30:12.805Z,9.30
2022-11-16T18:32:40.989Z,9.30
2022-11-16T18:35:10.081Z,9.30
2022-11-16T18:37:38.269Z,9.30
2022-11-16T18:40:13.018Z,9.30
2022-11-16T18:42:41.723Z,9.30
2022-11-16T18:45:11.899Z,9.30
2022-11-16T18:47:40.106Z,9.20
2022-11-16T18:50:19.016Z,9.20
2022-11-16T18:52:49.647Z,9.20
2022-11-16T18:55:18.023Z,9.20
2022-11-16T18:57:46.238Z,9.20
2022-11-16T19:00:19.167Z,9.20
2022-11-16T19:02:47.391Z,9.20
2022-11-16T19:05:15.706Z,9.20
2022-11-16T19:07:43.953Z,9.20
2022-11-16T19:10:12.250Z,9.20
2022-11-16T19:12:40.441Z,9.20
2022-11-16T19:15:09.107Z,9.20
2022-11-16T19:17:59.340Z,9.20
2022-11-16T19:20:26.998Z,9.20
2022-11-16T19:22:55.297Z,9.20
2022-11-16T19:25:23.491Z,9.20
2022-11-16T19:27:51.825Z,9.20
2022-11-16T19:30:20.472Z,9.20
2022-11-16T19:32:50.053Z,9.20
2022-11-16T19:35:43.171Z,9.20
2022-11-16T19:38:11.394Z,9.20
2022-11-16T19:40:39.676Z,9.20
2022-11-16T19:43:07.868Z,9.20
2022-11-16T19:45:36.119Z,9.20
2022-11-16T19:48:06.394Z,9.20
2022-11-16T19:50:36.435Z,9.20
2022-11-16T19:53:04.610Z,9.20
2022-11-16T19:55:32.835Z,9.20
2022-11-16T19:58:01.038Z,9.10
2022-11-16T20:00:29.318Z,9.10
2022-11-16T20:02:58.309Z,9.10
2022-11-16T20:05:52.766Z,9.10
2022-11-16T20:08:23.972Z,9.10
2022-11-16T20:10:52.132Z,9.10
2022-11-16T20:13:21.896Z,9.10
2022-11-16T20:15:50.140Z,9.10
2022-11-16T20:18:18.357Z,9.10
2022-11-16T20:20:46.567Z,9.10
2022-11-16T20:23:19.499Z,9.10
2022-11-16T20:25:47.693Z,9.10
2022-11-16T20:28:15.915Z,9.10
2022-11-16T20:30:47.252Z,9.00
2022-11-16T20:33:15.775Z,9.10
2022-11-16T20:35:44.006Z,9.10
2022-11-16T20:38:12.279Z,9.10
2022-11-16T20:40:41.931Z,9.00
2022-11-16T20:43:14.341Z,9.10
2022-11-16T20:45:42.557Z,9.00
2022-11-16T20:48:10.788Z,9.00
2022-11-16T20:50:38.963Z,8.90
2022-11-16T20:53:07.164Z,8.90
2022-11-16T20:55:35.364Z,9.00
2022-11-16T20:58:04.995Z,9.00
2022-11-16T21:00:33.211Z,9.00
2022-11-16T21:03:01.395Z,9.00
2022-11-16T21:05:29.593Z,8.90
2022-11-16T21:07:57.774Z,9.00
2022-11-16T21:10:26.018Z,9.00
2022-11-16T21:13:26.038Z,8.90
2022-11-16T21:16:00.010Z,8.90
2022-11-16T21:18:30.900Z,8.90
2022-11-16T21:21:00.680Z,8.90
2022-11-16T21:23:30.557Z,8.90
2022-11-16T21:26:04.304Z,9.00
2022-11-16T21:28:32.605Z,9.00
2022-11-16T21:31:03.963Z,9.00
2022-11-16T21:33:33.246Z,9.00
2022-11-16T21:36:04.472Z,9.00
2022-11-16T21:38:33.977Z,9.00
2022-11-16T21:41:04.305Z,9.00
2022-11-16T21:43:33.796Z,9.00
2022-11-16T21:46:05.690Z,9.00
2022-11-16T21:48:34.408Z,9.00
2022-11-16T21:51:03.196Z,9.00
2022-11-16T21:53:32.052Z,9.00
2022-11-16T21:56:00.602Z,9.00
2022-11-16T21:58:33.102Z,9.10
2022-11-16T22:01:03.830Z,9.10
2022-11-16T22:03:33.703Z,9.10
2022-11-16T22:06:22.112Z,9.10
2022-11-16T22:08:50.791Z,9.20
2022-11-16T22:11:22.133Z,9.30
2022-11-16T22:13:50.849Z,9.20
2022-11-16T22:16:23.214Z,9.20
2022-11-16T22:18:57.507Z,9.10
2022-11-16T22:21:25.711Z,9.10
2022-11-16T22:23:54.406Z,9.10
2022-11-16T22:26:22.683Z,9.10
2022-11-16T22:28:50.908Z,9.10
2022-11-16T22:31:20.462Z,9.10
2022-11-16T22:33:52.893Z,9.20
2022-11-16T22:36:21.132Z,9.30
2022-11-16T22:38:49.319Z,9.40
2022-11-16T22:41:17.566Z,9.40
2022-11-16T22:43:45.780Z,9.40
2022-11-16T22:46:13.999Z,9.40
2022-11-16T22:48:44.950Z,9.50
2022-11-16T22:51:19.656Z,9.50
2022-11-16T22:53:48.113Z,9.50
2022-11-16T22:56:16.302Z,9.40
2022-11-16T22:58:44.567Z,9.40
2022-11-16T23:01:13.761Z,9.40
2022-11-16T23:04:15.381Z,9.40
2022-11-16T23:06:43.589Z,9.40
2022-11-16T23:09:11.793Z,9.40
2022-11-16T23:12:01.115Z,9.40
2022-11-16T23:14:46.724Z,9.40
2022-11-16T23:17:14.966Z,9.30
2022-11-16T23:20:01.753Z,9.30
2022-11-16T23:22:47.132Z,9.30
2022-11-16T23:25:32.586Z,9.30
2022-11-16T23:28:04.151Z,9.30
2022-11-16T23:30:32.658Z,9.30
2022-11-16T23:33:00.933Z,9.20
2022-11-16T23:35:34.877Z,9.30
2022-11-16T23:38:04.914Z,9.30
2022-11-16T23:40:34.871Z,9.30
2022-11-16T23:43:29.058Z,9.30
2022-11-16T23:46:01.095Z,9.30
2022-11-16T23:48:54.605Z,9.30
2022-11-16T23:51:24.792Z,9.40
2022-11-16T23:53:53.399Z,9.40
2022-11-16T23:56:22.998Z,9.40
2022-11-16T23:58:51.301Z,9.40
